Time;durP1;ratioP1;P1;durP2;ratioP2;P2;SDS_P1;SDS_P2;PMS_P1;PMS_P2;Temp;Humidity;BMP_temperature;BMP_pressure;BME280_temperature;BME280_humidity;BME280_pressure;Samples;Min_cycle;Max_cycle;Signal;HPM_P1;HPM_P2
2021/08/16 00:01:51;;;;;;;18.05;11.93;;;;;;;;;;5068205;28;20613;-49
2021/08/16 00:04:18;;;;;;;18.13;11.95;;;;;;;;;;5068267;28;20076;-49
2021/08/16 00:06:44;;;;;;;22.90;12.07;;;;;;;;;;5067531;28;20087;-49
2021/08/16 00:09:11;;;;;;;18.38;11.77;;;;;;;;;;5069864;28;20054;-49
2021/08/16 00:11:39;;;;;;;20.33;11.38;;;;;;;;;;5068518;28;20068;-48
2021/08/16 00:14:05;;;;;;;21.20;12.63;;;;;;;;;;5067177;28;20492;-48
2021/08/16 00:16:33;;;;;;;20.20;12.15;;;;;;;;;;5067127;28;20051;-49
2021/08/16 00:18:59;;;;;;;20.15;12.38;;;;;;;;;;5067837;28;20052;-49
2021/08/16 00:21:25;;;;;;;20.45;12.60;;;;;;;;;;5068233;28;20084;-48
2021/08/16 00:23:52;;;;;;;18.67;11.52;;;;;;;;;;5071059;28;20044;-48
2021/08/16 00:26:18;;;;;;;19.85;11.70;;;;;;;;;;5067614;28;20048;-49
2021/08/16 00:28:45;;;;;;;18.48;11.80;;;;;;;;;;5067852;28;20076;-49
2021/08/16 00:31:11;;;;;;;16.73;12.00;;;;;;;;;;5067750;28;20044;-49
2021/08/16 00:33:37;;;;;;;20.80;10.65;;;;;;;;;;5068119;28;20051;-48
2021/08/16 00:36:04;;;;;;;17.92;10.80;;;;;;;;;;5070291;28;20076;-48
2021/08/16 00:38:30;;;;;;;22.92;11.88;;;;;;;;;;5068842;28;20496;-48
2021/08/16 00:40:56;;;;;;;16.58;11.10;;;;;;;;;;5067988;28;20197;-49
2021/08/16 00:43:23;;;;;;;15.85;11.32;;;;;;;;;;5067561;28;20096;-48
2021/08/16 00:45:49;;;;;;;18.42;12.35;;;;;;;;;;5067658;28;20524;-49
2021/08/16 00:48:16;;;;;;;22.67;11.27;;;;;;;;;;5070218;28;20044;-49
2021/08/16 00:50:42;;;;;;;21.40;11.85;;;;;;;;;;5070084;28;20075;-49
2021/08/16 00:53:09;;;;;;;20.20;11.30;;;;;;;;;;5068537;28;20126;-48
2021/08/16 00:55:35;;;;;;;19.95;11.70;;;;;;;;;;5065794;28;20051;-48
2021/08/16 00:58:02;;;;;;;17.42;11.55;;;;;;;;;;5071695;28;20056;-48
2021/08/16 01:00:28;;;;;;;22.30;11.77;;;;;;;;;;5056142;28;20047;-48
2021/08/16 01:02:55;;;;;;;19.85;11.95;;;;;;;;;;5075029;28;20045;-48
2021/08/16 01:05:21;;;;;;;20.50;11.82;;;;;;;;;;5071079;28;20514;-48
2021/08/16 01:07:48;;;;;;;18.38;11.65;;;;;;;;;;5071327;28;20059;-48
2021/08/16 01:10:15;;;;;;;14.32;10.95;;;;;;;;;;5071271;28;20581;-48
2021/08/16 01:12:42;;;;;;;18.10;12.13;;;;;;;;;;5071393;28;20052;-49
2021/08/16 01:15:11;;;;;;;23.58;12.75;;;;;;;;;;5073786;28;20384;-47
2021/08/16 01:17:38;;;;;;;19.42;12.13;;;;;;;;;;5072609;28;20040;-49
2021/08/16 01:20:09;;;;;;;19.63;11.90;;;;;;;;;;5070882;28;20068;-48
2021/08/16 01:22:36;;;;;;;17.48;11.40;;;;;;;;;;5071139;28;20384;-48
2021/08/16 01:25:03;;;;;;;20.75;11.02;;;;;;;;;;5071087;28;20041;-48
2021/08/16 01:27:30;;;;;;;16.80;11.60;;;;;;;;;;5055676;28;20068;-48
2021/08/16 01:29:57;;;;;;;19.65;10.45;;;;;;;;;;5074803;28;20052;-48
2021/08/16 01:32:24;;;;;;;15.27;10.35;;;;;;;;;;5070995;28;20522;-48
2021/08/16 01:34:50;;;;;;;17.02;10.82;;;;;;;;;;5070563;28;20036;-49
2021/08/16 01:37:16;;;;;;;18.48;11.02;;;;;;;;;;5070096;28;20067;-49
2021/08/16 01:39:43;;;;;;;15.90;10.80;;;;;;;;;;5060909;28;20559;-48
2021/08/16 01:42:09;;;;;;;19.42;11.35;;;;;;;;;;5059178;28;20458;-48
2021/08/16 01:44:36;;;;;;;16.45;11.45;;;;;;;;;;5072103;28;20405;-48
2021/08/16 01:47:05;;;;;;;19.00;10.98;;;;;;;;;;5070787;28;20097;-47
2021/08/16 01:49:31;;;;;;;18.27;11.90;;;;;;;;;;5070319;28;20041;-49
2021/08/16 01:51:58;;;;;;;20.75;11.60;;;;;;;;;;5068826;28;20055;-48
2021/08/16 01:54:24;;;;;;;15.77;11.00;;;;;;;;;;5062586;28;20630;-49
2021/08/16 01:56:50;;;;;;;19.30;11.30;;;;;;;;;;5073505;28;20120;-48
2021/08/16 01:59:17;;;;;;;15.55;10.82;;;;;;;;;;5070276;28;20044;-48
2021/08/16 02:01:43;;;;;;;18.45;12.00;;;;;;;;;;5070451;28;20411;-49
2021/08/16 02:04:10;;;;;;;19.20;12.05;;;;;;;;;;5070047;28;20162;-48
2021/08/16 02:06:36;;;;;;;21.23;11.27;;;;;;;;;;5070298;28;20044;-48
2021/08/16 02:09:03;;;;;;;17.13;10.82;;;;;;;;;;5073537;28;20052;-49
2021/08/16 02:11:29;;;;;;;17.55;11.68;;;;;;;;;;5070953;28;20088;-48
2021/08/16 02:13:56;;;;;;;15.95;11.93;;;;;;;;;;5070268;28;20052;-48
2021/08/16 02:16:22;;;;;;;19.15;11.52;;;;;;;;;;5070141;28;20048;-48
2021/08/16 02:18:48;;;;;;;16.88;12.13;;;;;;;;;;5069939;28;20091;-48
2021/08/16 02:21:14;;;;;;;20.02;11.73;;;;;;;;;;5072467;28;20055;-48
2021/08/16 02:23:41;;;;;;;19.23;11.55;;;;;;;;;;5071500;28;20040;-49
2021/08/16 02:26:07;;;;;;;18.38;11.48;;;;;;;;;;5069828;28;20090;-48
2021/08/16 02:28:34;;;;;;;17.88;10.98;;;;;;;;;;5069766;28;20086;-49
2021/08/16 02:31:00;;;;;;;19.42;12.23;;;;;;;;;;5069957;28;20048;-48
2021/08/16 02:33:27;;;;;;;18.17;11.98;;;;;;;;;;5070240;28;20072;-48
2021/08/16 02:35:54;;;;;;;19.85;12.52;;;;;;;;;;5073117;28;20554;-48
2021/08/16 02:38:21;;;;;;;16.27;11.48;;;;;;;;;;5069542;28;20534;-49
2021/08/16 02:40:47;;;;;;;18.55;10.90;;;;;;;;;;5069602;28;20503;-48
2021/08/16 02:43:13;;;;;;;19.13;11.30;;;;;;;;;;5069609;28;20040;-48
2021/08/16 02:45:39;;;;;;;19.52;12.07;;;;;;;;;;5069783;28;20120;-48
2021/08/16 02:48:06;;;;;;;20.55;12.15;;;;;;;;;;5072103;28;20044;-49
2021/08/16 02:50:33;;;;;;;18.52;10.48;;;;;;;;;;5069544;28;20123;-49
2021/08/16 02:52:59;;;;;;;19.60;11.40;;;;;;;;;;5069339;28;20166;-48
2021/08/16 02:55:25;;;;;;;17.27;12.07;;;;;;;;;;5071017;28;20036;-48
2021/08/16 02:57:52;;;;;;;22.48;11.93;;;;;;;;;;5069520;28;20045;-49
2021/08/16 03:00:18;;;;;;;20.00;12.60;;;;;;;;;;5071111;28;20040;-49
2021/08/16 03:02:44;;;;;;;20.52;12.30;;;;;;;;;;5071352;28;20094;-48
2021/08/16 03:05:12;;;;;;;16.98;11.68;;;;;;;;;;5061452;28;20037;-48
2021/08/16 03:07:38;;;;;;;17.38;11.30;;;;;;;;;;5067821;28;20510;-48
2021/08/16 03:10:09;;;;;;;18.33;11.60;;;;;;;;;;5057740;28;20060;-48
2021/08/16 03:12:35;;;;;;;19.42;11.40;;;;;;;;;;5069446;28;20123;-48
2021/08/16 03:15:01;;;;;;;16.58;11.57;;;;;;;;;;5071588;28;20051;-49
2021/08/16 03:17:28;;;;;;;17.63;11.95;;;;;;;;;;5070978;28;20106;-48
2021/08/16 03:19:54;;;;;;;17.10;11.13;;;;;;;;;;5068383;28;20079;-49
2021/08/16 03:22:20;;;;;;;17.35;11.77;;;;;;;;;;5068565;28;20119;-49
2021/08/16 03:24:47;;;;;;;18.67;12.02;;;;;;;;;;5068510;28;20065;-49
2021/08/16 03:27:13;;;;;;;18.45;12.50;;;;;;;;;;5070718;28;20066;-48
2021/08/16 03:29:39;;;;;;;20.63;12.63;;;;;;;;;;5069507;28;20573;-48
2021/08/16 03:32:06;;;;;;;22.25;13.32;;;;;;;;;;5068208;28;20079;-48
2021/08/16 03:34:32;;;;;;;20.38;12.65;;;;;;;;;;5067013;28;20056;-49
2021/08/16 03:36:58;;;;;;;18.67;12.52;;;;;;;;;;5073142;28;20036;-49
2021/08/16 03:39:25;;;;;;;20.60;13.30;;;;;;;;;;5068864;28;20068;-48
2021/08/16 03:41:51;;;;;;;21.10;13.55;;;;;;;;;;5071071;28;20044;-48
2021/08/16 03:44:17;;;;;;;22.27;13.35;;;;;;;;;;5068775;28;20507;-49
2021/08/16 03:46:44;;;;;;;20.70;13.13;;;;;;;;;;5068619;28;20060;-49
2021/08/16 03:49:13;;;;;;;21.27;13.23;;;;;;;;;;5068930;28;20048;-49
2021/08/16 03:51:40;;;;;;;26.48;14.32;;;;;;;;;;5068682;28;20048;-48
2021/08/16 03:54:06;;;;;;;19.33;12.93;;;;;;;;;;5075680;28;20502;-48
2021/08/16 03:56:32;;;;;;;24.23;13.02;;;;;;;;;;5069603;28;20079;-48
2021/08/16 03:58:59;;;;;;;17.20;12.85;;;;;;;;;;5068401;28;20052;-48
2021/08/16 04:01:25;;;;;;;17.42;12.68;;;;;;;;;;5069081;28;20084;-48
2021/08/16 04:03:52;;;;;;;18.77;13.27;;;;;;;;;;5068732;28;20048;-49
2021/08/16 04:06:18;;;;;;;23.25;13.32;;;;;;;;;;5070462;28;20095;-48
2021/08/16 04:08:44;;;;;;;19.50;12.50;;;;;;;;;;5068000;28;20072;-49
2021/08/16 04:11:12;;;;;;;16.27;11.82;;;;;;;;;;5068294;28;20534;-49
2021/08/16 04:13:38;;;;;;;20.77;13.13;;;;;;;;;;5059161;28;20163;-49
2021/08/16 04:16:05;;;;;;;23.17;13.23;;;;;;;;;;5060968;28;20061;-49
2021/08/16 04:18:31;;;;;;;19.65;12.85;;;;;;;;;;5056760;28;20067;-49
2021/08/16 04:20:58;;;;;;;18.70;12.68;;;;;;;;;;5061512;28;20040;-48
2021/08/16 04:23:25;;;;;;;19.05;12.55;;;;;;;;;;5064832;28;20207;-49
2021/08/16 04:25:51;;;;;;;23.20;13.23;;;;;;;;;;5058818;28;20049;-49
2021/08/16 04:28:17;;;;;;;17.52;12.13;;;;;;;;;;5061459;28;20098;-49
2021/08/16 04:30:45;;;;;;;19.05;11.75;;;;;;;;;;5069442;28;20464;-49
2021/08/16 04:33:12;;;;;;;14.75;10.48;;;;;;;;;;5068934;28;20491;-49
2021/08/16 04:35:38;;;;;;;18.33;11.38;;;;;;;;;;5068975;28;20106;-48
2021/08/16 04:38:05;;;;;;;22.75;11.80;;;;;;;;;;5069895;28;20072;-49
2021/08/16 04:40:31;;;;;;;18.60;12.32;;;;;;;;;;5070160;28;20103;-49
2021/08/16 04:42:58;;;;;;;17.30;9.88;;;;;;;;;;5070490;28;20502;-49
2021/08/16 04:45:24;;;;;;;13.68;10.48;;;;;;;;;;5070522;28;20069;-49
2021/08/16 04:47:50;;;;;;;15.48;10.20;;;;;;;;;;5064072;28;20432;-49
2021/08/16 04:50:17;;;;;;;15.90;11.07;;;;;;;;;;5058792;28;20052;-49
2021/08/16 04:52:44;;;;;;;15.35;11.00;;;;;;;;;;5071135;28;20067;-49
2021/08/16 04:55:11;;;;;;;16.73;9.50;;;;;;;;;;5069048;28;20048;-49
2021/08/16 04:57:38;;;;;;;17.77;11.35;;;;;;;;;;5070682;28;20055;-49
2021/08/16 05:00:05;;;;;;;18.45;11.30;;;;;;;;;;5079350;28;20060;-49
2021/08/16 05:02:32;;;;;;;17.35;11.77;;;;;;;;;;5060047;28;20037;-49
2021/08/16 05:05:07;;;;;;;16.38;12.60;;;;;;;;;;5059633;28;20081;-49
2021/08/16 05:07:33;;;;;;;17.27;11.38;;;;;;;;;;5058824;28;20073;-49
2021/08/16 05:10:00;;;;;;;17.33;12.13;;;;;;;;;;5064180;28;20423;-49
2021/08/16 05:12:26;;;;;;;18.75;12.45;;;;;;;;;;5081103;28;20040;-50
2021/08/16 05:14:52;;;;;;;17.63;12.98;;;;;;;;;;5084653;28;20071;-49
2021/08/16 05:17:19;;;;;;;17.33;11.93;;;;;;;;;;5075915;28;20089;-48
2021/08/16 05:19:45;;;;;;;17.35;11.88;;;;;;;;;;5072543;28;20045;-48
2021/08/16 05:22:12;;;;;;;15.00;11.52;;;;;;;;;;5067142;28;20079;-49
2021/08/16 05:24:38;;;;;;;20.40;11.70;;;;;;;;;;5070975;28;20048;-49
2021/08/16 05:27:04;;;;;;;20.45;11.18;;;;;;;;;;5073785;28;20067;-49
2021/08/16 05:29:31;;;;;;;21.00;11.15;;;;;;;;;;5071344;28;20080;-49
2021/08/16 05:31:58;;;;;;;14.18;10.88;;;;;;;;;;5070811;28;20601;-49
2021/08/16 05:34:24;;;;;;;14.75;10.75;;;;;;;;;;5070771;28;20040;-49
2021/08/16 05:36:51;;;;;;;15.45;10.35;;;;;;;;;;5060554;28;20041;-49
2021/08/16 05:39:17;;;;;;;15.10;10.65;;;;;;;;;;5072737;28;20124;-49
2021/08/16 05:41:43;;;;;;;15.02;11.10;;;;;;;;;;5071903;28;20102;-49
2021/08/16 05:44:10;;;;;;;16.77;11.40;;;;;;;;;;5070204;28;20080;-49
2021/08/16 05:46:36;;;;;;;16.55;10.05;;;;;;;;;;5068958;28;20051;-49
2021/08/16 05:49:02;;;;;;;13.45;10.75;;;;;;;;;;5072120;28;20041;-49
2021/08/16 05:51:29;;;;;;;16.23;10.27;;;;;;;;;;5069896;28;20048;-49
2021/08/16 05:53:55;;;;;;;15.93;10.80;;;;;;;;;;5070030;28;20048;-49
2021/08/16 05:56:21;;;;;;;11.77;9.27;;;;;;;;;;5069065;28;20045;-49
2021/08/16 05:58:48;;;;;;;12.60;9.32;;;;;;;;;;5066496;28;20064;-49
2021/08/16 06:01:14;;;;;;;14.05;9.75;;;;;;;;;;5071435;28;20051;-49
2021/08/16 06:03:40;;;;;;;21.23;9.80;;;;;;;;;;5065202;28;20051;-49
2021/08/16 06:06:07;;;;;;;14.88;9.27;;;;;;;;;;5061005;28;20534;-49
2021/08/16 06:08:33;;;;;;;15.50;8.57;;;;;;;;;;5070471;28;20052;-49
2021/08/16 06:11:00;;;;;;;15.02;9.13;;;;;;;;;;5063562;28;20045;-48
2021/08/16 06:13:26;;;;;;;11.27;8.52;;;;;;;;;;5064649;28;20076;-47
2021/08/16 06:15:53;;;;;;;13.63;8.77;;;;;;;;;;5062893;28;20049;-48
2021/08/16 06:18:19;;;;;;;13.15;7.63;;;;;;;;;;5070048;28;20496;-47
2021/08/16 06:20:46;;;;;;;11.27;7.68;;;;;;;;;;5065590;28;20472;-47
2021/08/16 06:23:12;;;;;;;11.52;7.97;;;;;;;;;;5066626;28;20052;-48
2021/08/16 06:25:38;;;;;;;11.20;7.72;;;;;;;;;;5063508;28;20049;-48
2021/08/16 06:28:05;;;;;;;10.65;7.38;;;;;;;;;;5067577;28;20109;-48
2021/08/16 06:30:31;;;;;;;11.63;6.82;;;;;;;;;;5063991;28;20090;-48
2021/08/16 06:32:58;;;;;;;8.38;6.43;;;;;;;;;;5070512;28;20082;-49
2021/08/16 06:35:24;;;;;;;9.75;6.82;;;;;;;;;;5058017;28;20068;-49
2021/08/16 06:37:51;;;;;;;9.65;6.35;;;;;;;;;;5062659;28;20037;-50
2021/08/16 06:40:18;;;;;;;9.88;6.47;;;;;;;;;;5066869;28;20110;-49
2021/08/16 06:42:44;;;;;;;8.07;5.68;;;;;;;;;;5079029;28;20077;-49
2021/08/16 06:45:11;;;;;;;9.65;5.40;;;;;;;;;;5068014;28;20502;-49
2021/08/16 06:47:38;;;;;;;8.55;5.32;;;;;;;;;;5063209;28;20040;-49
2021/08/16 06:50:06;;;;;;;12.00;5.90;;;;;;;;;;5061584;28;20675;-49
2021/08/16 06:52:32;;;;;;;8.23;5.00;;;;;;;;;;5064087;28;20051;-49
2021/08/16 06:54:59;;;;;;;6.65;4.70;;;;;;;;;;5054437;28;20093;-49
2021/08/16 06:57:27;;;;;;;7.78;5.10;;;;;;;;;;5051904;28;20091;-50
2021/08/16 06:59:54;;;;;;;7.15;5.07;;;;;;;;;;5056776;28;20079;-49
2021/08/16 07:02:20;;;;;;;6.40;4.45;;;;;;;;;;5056684;28;20588;-49
2021/08/16 07:04:47;;;;;;;6.53;4.50;;;;;;;;;;5056876;28;20555;-49
2021/08/16 07:07:13;;;;;;;12.75;4.50;;;;;;;;;;5057173;28;20067;-49
2021/08/16 07:09:39;;;;;;;7.05;4.55;;;;;;;;;;5053273;28;20041;-49
2021/08/16 07:12:06;;;;;;;9.32;5.22;;;;;;;;;;5058797;28;20080;-49
2021/08/16 07:14:32;;;;;;;9.75;5.22;;;;;;;;;;5057712;28;20045;-50
2021/08/16 07:16:58;;;;;;;7.00;4.57;;;;;;;;;;5059743;28;20056;-49
2021/08/16 07:19:25;;;;;;;6.55;4.32;;;;;;;;;;5055866;28;20272;-49
2021/08/16 07:21:51;;;;;;;9.85;5.63;;;;;;;;;;5054675;28;20382;-49
2021/08/16 07:24:19;;;;;;;7.20;4.85;;;;;;;;;;5063359;28;20090;-50
2021/08/16 07:26:45;;;;;;;7.43;4.88;;;;;;;;;;5056361;28;20424;-49
2021/08/16 07:29:12;;;;;;;6.47;4.55;;;;;;;;;;5069867;28;20171;-49
2021/08/16 07:31:38;;;;;;;7.28;4.45;;;;;;;;;;5079073;28;20381;-49
2021/08/16 07:34:04;;;;;;;8.02;4.22;;;;;;;;;;5065366;28;20408;-48
2021/08/16 07:36:31;;;;;;;6.03;4.10;;;;;;;;;;5059365;28;20048;-49
2021/08/16 07:38:57;;;;;;;7.55;3.85;;;;;;;;;;5060417;28;20052;-49
2021/08/16 07:41:24;;;;;;;6.40;4.03;;;;;;;;;;5066159;28;20127;-49
2021/08/16 07:43:50;;;;;;;6.68;3.78;;;;;;;;;;5067994;28;20135;-49
2021/08/16 07:46:16;;;;;;;7.10;4.20;;;;;;;;;;5064761;28;20048;-48
2021/08/16 07:48:43;;;;;;;5.25;3.50;;;;;;;;;;5068179;28;20075;-49
2021/08/16 07:51:09;;;;;;;5.53;3.80;;;;;;;;;;5070302;28;20134;-49
2021/08/16 07:53:36;;;;;;;7.28;4.00;;;;;;;;;;5070254;28;20115;-50
2021/08/16 07:56:02;;;;;;;7.88;3.97;;;;;;;;;;5067389;28;20044;-49
2021/08/16 07:58:28;;;;;;;5.05;3.70;;;;;;;;;;5067797;28;20533;-49
2021/08/16 08:00:55;;;;;;;7.25;3.65;;;;;;;;;;5071367;28;20881;-48
2021/08/16 08:03:21;;;;;;;6.75;3.28;;;;;;;;;;5070657;28;20134;-49
2021/08/16 08:05:48;;;;;;;6.03;3.45;;;;;;;;;;5074025;28;20052;-50
2021/08/16 08:08:14;;;;;;;7.75;3.35;;;;;;;;;;5070889;28;20049;-50
2021/08/16 08:10:40;;;;;;;6.50;3.80;;;;;;;;;;5070395;28;20060;-50
2021/08/16 08:13:07;;;;;;;5.22;3.42;;;;;;;;;;5070463;28;20452;-50
2021/08/16 08:15:33;;;;;;;6.68;3.78;;;;;;;;;;5070184;28;20450;-50
2021/08/16 08:17:59;;;;;;;6.63;3.70;;;;;;;;;;5076119;28;20080;-50
2021/08/16 08:20:26;;;;;;;5.38;3.50;;;;;;;;;;5077270;28;20045;-50
2021/08/16 08:22:52;;;;;;;6.97;3.67;;;;;;;;;;5071918;28;20044;-48
2021/08/16 08:25:19;;;;;;;5.72;3.83;;;;;;;;;;5078970;28;20134;-49
2021/08/16 08:27:45;;;;;;;6.55;3.47;;;;;;;;;;5082078;28;20075;-49
2021/08/16 08:30:12;;;;;;;6.40;3.78;;;;;;;;;;5073870;28;20045;-49
2021/08/16 08:32:45;;;;;;;6.00;3.47;;;;;;;;;;5072638;28;20075;-49
2021/08/16 08:35:11;;;;;;;5.97;4.07;;;;;;;;;;5071092;28;20040;-49
2021/08/16 08:37:37;;;;;;;8.77;4.35;;;;;;;;;;5071311;28;20505;-48
2021/08/16 08:40:04;;;;;;;8.77;4.43;;;;;;;;;;5071439;28;20083;-48
2021/08/16 08:42:31;;;;;;;9.80;4.05;;;;;;;;;;5079369;28;20063;-50
2021/08/16 08:44:58;;;;;;;7.45;4.15;;;;;;;;;;5072980;28;20105;-49
2021/08/16 08:47:25;;;;;;;9.27;3.88;;;;;;;;;;5069683;28;20087;-50
2021/08/16 08:49:51;;;;;;;5.45;3.85;;;;;;;;;;5071790;28;20097;-49
2021/08/16 08:52:17;;;;;;;5.15;3.85;;;;;;;;;;5069568;28;20052;-49
2021/08/16 08:54:44;;;;;;;7.20;4.28;;;;;;;;;;5065744;28;20080;-50
2021/08/16 08:57:17;;;;;;;5.80;4.30;;;;;;;;;;5073453;28;20058;-49
2021/08/16 08:59:44;;;;;;;5.90;3.95;;;;;;;;;;5066358;28;20084;-48
2021/08/16 09:02:13;;;;;;;6.90;3.85;;;;;;;;;;5076147;28;20068;-50
2021/08/16 09:05:09;;;;;;;6.15;4.45;;;;;;;;;;5069218;28;20116;-50
2021/08/16 09:07:37;;;;;;;5.57;4.07;;;;;;;;;;5064180;28;20593;-49
2021/08/16 09:10:10;;;;;;;9.57;4.13;;;;;;;;;;5071999;28;20044;-48
2021/08/16 09:12:38;;;;;;;6.95;3.97;;;;;;;;;;5053386;28;20119;-48
2021/08/16 09:15:14;;;;;;;6.53;3.50;;;;;;;;;;5072731;28;20057;-49
2021/08/16 09:17:40;;;;;;;5.93;4.18;;;;;;;;;;5077645;28;20110;-49
2021/08/16 09:20:16;;;;;;;8.88;4.43;;;;;;;;;;5070724;28;20080;-49
2021/08/16 09:22:42;;;;;;;5.72;3.33;;;;;;;;;;5070997;28;20036;-49
2021/08/16 09:25:11;;;;;;;8.60;4.57;;;;;;;;;;5070997;28;20076;-48
2021/08/16 09:27:47;;;;;;;5.80;3.90;;;;;;;;;;5070860;28;20052;-48
2021/08/16 09:30:14;;;;;;;6.00;3.95;;;;;;;;;;5073251;28;20502;-49
2021/08/16 09:32:43;;;;;;;5.53;3.50;;;;;;;;;;5070546;28;20565;-49
2021/08/16 09:35:11;;;;;;;6.88;4.43;;;;;;;;;;5070428;28;20053;-48
2021/08/16 09:37:38;;;;;;;9.48;4.32;;;;;;;;;;5070680;28;20049;-49
2021/08/16 09:40:06;;;;;;;8.68;3.92;;;;;;;;;;5070759;28;20501;-49
2021/08/16 09:42:42;;;;;;;5.88;4.18;;;;;;;;;;5080580;28;20040;-49
2021/08/16 09:45:11;;;;;;;6.03;4.28;;;;;;;;;;5077774;28;20052;-49
2021/08/16 09:47:43;;;;;;;5.85;4.18;;;;;;;;;;5072862;28;20488;-49
2021/08/16 09:50:12;;;;;;;5.43;3.90;;;;;;;;;;5066445;28;20595;-50
2021/08/16 09:52:38;;;;;;;5.90;4.43;;;;;;;;;;5076930;28;20090;-51
2021/08/16 09:55:05;;;;;;;5.25;3.53;;;;;;;;;;5072464;28;20044;-50
2021/08/16 09:57:32;;;;;;;7.80;3.85;;;;;;;;;;5052951;28;20049;-49
2021/08/16 09:59:59;;;;;;;5.80;3.85;;;;;;;;;;5074028;28;20044;-50
2021/08/16 10:02:28;;;;;;;8.60;3.95;;;;;;;;;;5068947;28;20055;-49
2021/08/16 10:04:56;;;;;;;9.75;3.13;;;;;;;;;;5069548;28;20079;-50
2021/08/16 10:07:26;;;;;;;6.38;3.25;;;;;;;;;;5069842;28;20036;-51
2021/08/16 10:09:55;;;;;;;6.85;3.53;;;;;;;;;;5070176;28;20041;-50
2021/08/16 10:12:22;;;;;;;8.05;3.90;;;;;;;;;;5071841;28;20079;-51
2021/08/16 10:14:49;;;;;;;5.18;3.53;;;;;;;;;;5072289;28;20049;-50
2021/08/16 10:17:16;;;;;;;6.75;3.60;;;;;;;;;;5069788;28;20052;-50
2021/08/16 10:19:44;;;;;;;7.60;3.63;;;;;;;;;;5071836;28;20504;-49
2021/08/16 10:22:10;;;;;;;5.10;3.67;;;;;;;;;;5069735;28;20568;-50
2021/08/16 10:24:36;;;;;;;4.50;3.40;;;;;;;;;;5067884;28;20460;-50
2021/08/16 10:27:11;;;;;;;5.70;3.63;;;;;;;;;;5073180;28;20468;-49
2021/08/16 10:29:39;;;;;;;5.57;4.15;;;;;;;;;;5072506;28;20454;-49
2021/08/16 10:32:09;;;;;;;5.30;3.30;;;;;;;;;;5066371;28;20052;-48
2021/08/16 10:34:36;;;;;;;8.98;4.00;;;;;;;;;;5069201;28;20119;-49
2021/08/16 10:37:10;;;;;;;5.80;3.83;;;;;;;;;;5070059;28;20055;-49
2021/08/16 10:39:37;;;;;;;;;;;;;;;;;;5054749;28;20060;-50
2021/08/16 10:42:11;;;;;;;5.82;3.97;;;;;;;;;;5073450;28;19927;-50
2021/08/16 10:44:37;;;;;;;;;;;;;;;;;;5071189;28;20518;-50
2021/08/16 10:47:04;;;;;;;6.38;4.00;;;;;;;;;;5068518;28;19927;-50
2021/08/16 10:49:34;;;;;;;6.68;3.88;;;;;;;;;;5068181;28;20037;-49
2021/08/16 10:52:01;;;;;;;7.15;4.13;;;;;;;;;;5064711;28;20047;-50
2021/08/16 10:54:29;;;;;;;4.55;3.78;;;;;;;;;;5071667;28;20087;-50
2021/08/16 10:56:56;;;;;;;7.47;4.90;;;;;;;;;;5083443;28;20067;-50
2021/08/16 10:59:24;;;;;;;8.77;4.07;;;;;;;;;;5069684;28;20064;-50
2021/08/16 11:01:50;;;;;;;7.32;4.53;;;;;;;;;;5070623;28;20054;-50
2021/08/16 11:04:26;;;;;;;6.25;4.40;;;;;;;;;;5067797;28;20048;-49
2021/08/16 11:06:53;;;;;;;6.80;4.43;;;;;;;;;;5066656;28;20106;-50
2021/08/16 11:09:25;;;;;;;6.07;4.50;;;;;;;;;;5069209;28;20136;-50
2021/08/16 11:11:52;;;;;;;5.68;4.40;;;;;;;;;;5069767;28;20055;-50
2021/08/16 11:14:23;;;;;;;6.32;4.68;;;;;;;;;;5066963;28;20080;-50
2021/08/16 11:16:53;;;;;;;9.82;4.32;;;;;;;;;;5067564;28;20049;-49
2021/08/16 11:19:20;;;;;;;7.68;4.25;;;;;;;;;;5068277;28;20044;-50
2021/08/16 11:21:53;;;;;;;5.88;3.88;;;;;;;;;;5071692;28;20415;-51
2021/08/16 11:24:25;;;;;;;7.57;4.50;;;;;;;;;;5065892;28;20040;-50
2021/08/16 11:26:52;;;;;;;11.00;4.80;;;;;;;;;;5067683;28;20076;-51
2021/08/16 11:29:22;;;;;;;6.43;4.38;;;;;;;;;;5061399;28;20051;-50
2021/08/16 11:31:59;;;;;;;7.97;4.43;;;;;;;;;;5061422;28;20049;-51
2021/08/16 11:34:26;;;;;;;6.78;4.45;;;;;;;;;;5064603;28;20049;-50
2021/08/16 11:36:52;;;;;;;9.93;4.95;;;;;;;;;;5064732;28;20451;-51
2021/08/16 11:39:27;;;;;;;7.38;4.28;;;;;;;;;;5064059;28;20036;-49
2021/08/16 11:41:56;;;;;;;7.00;4.20;;;;;;;;;;5065032;28;20525;-50
2021/08/16 11:44:23;;;;;;;10.32;5.03;;;;;;;;;;5061915;28;20051;-52
2021/08/16 11:46:50;;;;;;;6.18;4.50;;;;;;;;;;5062401;28;20071;-50
2021/08/16 11:49:17;;;;;;;5.55;4.32;;;;;;;;;;5066710;28;20137;-49
2021/08/16 11:51:44;;;;;;;5.90;4.28;;;;;;;;;;5064468;28;20045;-49
2021/08/16 11:54:12;;;;;;;5.55;4.53;;;;;;;;;;5064874;28;20496;-50
2021/08/16 11:56:56;;;;;;;6.63;4.90;;;;;;;;;;5066310;28;20037;-49
2021/08/16 11:59:22;;;;;;;8.18;4.32;;;;;;;;;;5062263;28;20041;-50
2021/08/16 12:01:49;;;;;;;5.20;4.40;;;;;;;;;;5062284;28;20077;-49
2021/08/16 12:04:15;;;;;;;7.18;4.85;;;;;;;;;;5066197;28;20059;-49
2021/08/16 12:06:42;;;;;;;6.32;4.53;;;;;;;;;;5063529;28;20404;-49
2021/08/16 12:09:09;;;;;;;8.80;4.63;;;;;;;;;;5064700;28;20044;-50
2021/08/16 12:11:36;;;;;;;6.32;4.22;;;;;;;;;;5057941;28;20098;-50
2021/08/16 12:14:02;;;;;;;7.90;3.95;;;;;;;;;;5061979;28;20053;-49
2021/08/16 12:16:30;;;;;;;6.10;4.65;;;;;;;;;;5064832;28;20045;-50
2021/08/16 12:18:57;;;;;;;10.02;5.00;;;;;;;;;;5065275;28;20044;-50
2021/08/16 12:21:23;;;;;;;8.88;5.15;;;;;;;;;;5063291;28;20066;-50
2021/08/16 12:23:57;;;;;;;9.77;4.82;;;;;;;;;;5064838;28;20508;-50
2021/08/16 12:26:28;;;;;;;6.78;4.70;;;;;;;;;;5061697;28;20122;-49
2021/08/16 12:28:54;;;;;;;6.45;4.70;;;;;;;;;;5061936;28;20048;-50
2021/08/16 12:31:24;;;;;;;6.93;4.95;;;;;;;;;;5066899;28;20522;-50
2021/08/16 12:33:56;;;;;;;6.18;4.80;;;;;;;;;;5067870;28;20094;-50
2021/08/16 12:36:24;;;;;;;6.95;4.63;;;;;;;;;;5063572;28;20096;-49
2021/08/16 12:38:55;;;;;;;8.95;4.90;;;;;;;;;;5053446;28;20135;-49
2021/08/16 12:41:26;;;;;;;7.10;4.82;;;;;;;;;;5064478;28;20037;-52
2021/08/16 12:43:53;;;;;;;7.40;5.00;;;;;;;;;;5064333;28;20082;-51
2021/08/16 12:46:33;;;;;;;7.15;4.97;;;;;;;;;;5067410;28;20053;-50
2021/08/16 12:49:00;;;;;;;7.93;5.05;;;;;;;;;;5069077;28;20072;-50
2021/08/16 12:51:27;;;;;;;12.98;5.03;;;;;;;;;;5071362;28;20499;-50
2021/08/16 12:53:56;;;;;;;7.82;5.28;;;;;;;;;;5068709;28;20052;-50
2021/08/16 12:56:23;;;;;;;6.07;5.07;;;;;;;;;;5064992;28;20194;-50
2021/08/16 12:58:49;;;;;;;5.97;4.88;;;;;;;;;;5064521;28;20075;-50
2021/08/16 13:01:25;;;;;;;10.57;5.13;;;;;;;;;;5063296;28;20175;-50
2021/08/16 13:03:52;;;;;;;6.93;4.88;;;;;;;;;;5063017;28;20080;-50
2021/08/16 13:06:19;;;;;;;8.90;5.15;;;;;;;;;;5070985;28;20106;-51
2021/08/16 13:08:45;;;;;;;9.05;5.45;;;;;;;;;;5066554;28;20102;-50
2021/08/16 13:11:12;;;;;;;5.10;4.47;;;;;;;;;;5065536;28;20456;-52
2021/08/16 13:13:42;;;;;;;7.60;5.28;;;;;;;;;;5065288;28;20073;-51
2021/08/16 13:16:09;;;;;;;9.63;4.95;;;;;;;;;;5068801;28;20480;-51
2021/08/16 13:18:36;;;;;;;8.98;5.47;;;;;;;;;;5062981;28;20146;-51
2021/08/16 13:21:04;;;;;;;7.13;4.65;;;;;;;;;;5067127;28;20133;-50
2021/08/16 13:23:30;;;;;;;7.25;4.70;;;;;;;;;;5068108;28;20492;-51
2021/08/16 13:25:56;;;;;;;8.13;5.25;;;;;;;;;;5065961;28;20537;-50
2021/08/16 13:28:24;;;;;;;7.80;4.97;;;;;;;;;;5066477;28;20048;-50
2021/08/16 13:30:51;;;;;;;9.35;4.68;;;;;;;;;;5066930;28;20049;-50
2021/08/16 13:33:18;;;;;;;9.38;5.07;;;;;;;;;;5068250;28;20500;-50
2021/08/16 13:35:44;;;;;;;9.15;5.55;;;;;;;;;;5065772;28;20040;-49
2021/08/16 13:38:10;;;;;;;7.05;4.93;;;;;;;;;;5064767;28;20205;-50
2021/08/16 13:40:37;;;;;;;8.35;5.28;;;;;;;;;;5063568;28;20127;-52
2021/08/16 13:43:03;;;;;;;8.32;5.22;;;;;;;;;;5070130;28;20106;-51
2021/08/16 13:45:29;;;;;;;6.07;5.13;;;;;;;;;;5064770;28;20489;-51
2021/08/16 13:47:56;;;;;;;8.73;5.32;;;;;;;;;;5068123;28;20052;-50
2021/08/16 13:50:22;;;;;;;8.13;5.30;;;;;;;;;;5066740;28;20090;-51
2021/08/16 13:52:49;;;;;;;7.15;4.60;;;;;;;;;;5063671;28;20045;-51
2021/08/16 13:55:17;;;;;;;10.10;5.60;;;;;;;;;;5067934;28;20063;-50
2021/08/16 13:57:43;;;;;;;12.45;5.47;;;;;;;;;;5065768;28;20071;-50
2021/08/16 14:00:10;;;;;;;12.27;5.13;;;;;;;;;;5066298;28;20076;-49
2021/08/16 14:02:37;;;;;;;10.93;5.57;;;;;;;;;;5065638;28;20130;-50
2021/08/16 14:05:03;;;;;;;8.27;5.25;;;;;;;;;;5061567;28;20041;-50
2021/08/16 14:07:29;;;;;;;8.30;5.22;;;;;;;;;;5057132;28;20045;-49
2021/08/16 14:09:56;;;;;;;10.95;5.40;;;;;;;;;;5067126;28;20052;-49
2021/08/16 14:12:22;;;;;;;8.13;5.53;;;;;;;;;;5066379;28;20044;-49
2021/08/16 14:14:48;;;;;;;10.65;5.32;;;;;;;;;;5066576;28;20120;-50
2021/08/16 14:17:15;;;;;;;8.65;5.53;;;;;;;;;;5065551;28;20074;-50
2021/08/16 14:19:41;;;;;;;6.15;4.93;;;;;;;;;;5064777;28;20115;-50
2021/08/16 14:22:08;;;;;;;8.48;5.80;;;;;;;;;;5068724;28;20051;-50
2021/08/16 14:24:35;;;;;;;7.93;5.57;;;;;;;;;;5064135;28;20049;-50
2021/08/16 14:27:01;;;;;;;9.30;5.68;;;;;;;;;;5070395;28;20546;-51
2021/08/16 14:29:27;;;;;;;9.90;5.40;;;;;;;;;;5063719;28;20106;-51
2021/08/16 14:31:54;;;;;;;8.43;5.35;;;;;;;;;;5064544;28;20071;-49